sensor_id;sensor_type;location;lat;lon;timestamp;pressure;altitude;pressure_sealevel;temperature;humidity
32733;BME280;11867;51.198;11.966;2023-01-28T00:00:27;101449.97;;;2.45;100.00
32733;BME280;11867;51.198;11.966;2023-01-28T00:01:30;101441.88;;;2.38;100.00
32733;BME280;11867;51.198;11.966;2023-01-28T00:02:33;101413.13;;;2.52;100.00
32733;BME280;11867;51.198;11.966;2023-01-28T00:03:36;101423.72;;;2.12;100.00
32733;BME280;11867;51.198;11.966;2023-01-28T00:04:37;101443.66;;;2.24;100.00
32733;BME280;11867;51.198;11.966;2023-01-28T00:05:40;101435.06;;;1.79;100.00
32733;BME280;11867;51.198;11.966;2023-01-28T00:06:42;101446.84;;;2.06;100.00
32733;BME280;11867;51.198;11.966;2023-01-28T00:07:47;101450.09;;;2.30;100.00
32733;BME280;11867;51.198;11.966;2023-01-28T00:08:49;101444.59;;;2.51;100.00
32733;BME280;11867;51.198;11.966;2023-01-28T00:09:52;101429.84;;;1.99;100.00
32733;BME280;11867;51.198;11.966;2023-01-28T00:10:53;101428.63;;;2.08;100.00
32733;BME280;11867;51.198;11.966;2023-01-28T00:11:56;101451.53;;;2.26;100.00
32733;BME280;11867;51.198;11.966;2023-01-28T00:12:58;101453.31;;;2.53;100.00
32733;BME280;11867;51.198;11.966;2023-01-28T00:14:01;101419.84;;;1.86;100.00
32733;BME280;11867;51.198;11.966;2023-01-28T00:15:05;101449.63;;;2.19;100.00
32733;BME280;11867;51.198;11.966;2023-01-28T00:16:08;101437.50;;;2.37;100.00
32733;BME280;11867;51.198;11.966;2023-01-28T00:17:10;101440.22;;;2.43;100.00
32733;BME280;11867;51.198;11.966;2023-01-28T00:18:14;101445.38;;;2.38;100.00
32733;BME280;11867;51.198;11.966;2023-01-28T00:19:16;101437.94;;;2.40;100.00
32733;BME280;11867;51.198;11.966;2023-01-28T00:20:19;101441.44;;;2.41;100.00
32733;BME280;11867;51.198;11.966;2023-01-28T00:21:21;101443.38;;;2.54;100.00
32733;BME280;11867;51.198;11.966;2023-01-28T00:22:23;101448.03;;;2.32;100.00
32733;BME280;11867;51.198;11.966;2023-01-28T00:23:25;101447.88;;;2.40;100.00
32733;BME280;11867;51.198;11.966;2023-01-28T00:24:29;101446.91;;;2.54;100.00
32733;BME280;11867;51.198;11.966;2023-01-28T00:25:30;101428.28;;;2.59;100.00
32733;BME280;11867;51.198;11.966;2023-01-28T00:26:33;101445.53;;;2.78;100.00
32733;BME280;11867;51.198;11.966;2023-01-28T00:27:34;101437.91;;;2.82;100.00
32733;BME280;11867;51.198;11.966;2023-01-28T00:28:37;101439.41;;;3.05;100.00
32733;BME280;11867;51.198;11.966;2023-01-28T00:29:39;101452.06;;;3.04;99.64
32733;BME280;11867;51.198;11.966;2023-01-28T00:30:41;101430.66;;;2.89;99.24
32733;BME280;11867;51.198;11.966;2023-01-28T00:31:43;101450.59;;;3.01;99.33
32733;BME280;11867;51.198;11.966;2023-01-28T00:32:45;101440.53;;;2.69;99.93
32733;BME280;11867;51.198;11.966;2023-01-28T00:33:49;101446.53;;;2.64;100.00
32733;BME280;11867;51.198;11.966;2023-01-28T00:34:52;101449.19;;;2.57;100.00
32733;BME280;11867;51.198;11.966;2023-01-28T00:35:57;101453.59;;;2.65;100.00
32733;BME280;11867;51.198;11.966;2023-01-28T00:37:00;101435.06;;;2.42;100.00
32733;BME280;11867;51.198;11.966;2023-01-28T00:38:02;101457.38;;;2.36;100.00
32733;BME280;11867;51.198;11.966;2023-01-28T00:39:05;101452.94;;;2.56;100.00
32733;BME280;11867;51.198;11.966;2023-01-28T00:40:08;101445.81;;;2.42;100.00
32733;BME280;11867;51.198;11.966;2023-01-28T00:41:12;101434.81;;;2.37;100.00
32733;BME280;11867;51.198;11.966;2023-01-28T00:42:14;101440.94;;;2.66;100.00
32733;BME280;11867;51.198;11.966;2023-01-28T00:43:17;101446.00;;;2.40;100.00
32733;BME280;11867;51.198;11.966;2023-01-28T00:44:19;101431.19;;;2.23;100.00
32733;BME280;11867;51.198;11.966;2023-01-28T00:45:22;101452.78;;;2.30;100.00
32733;BME280;11867;51.198;11.966;2023-01-28T00:46:24;101454.56;;;2.51;100.00
32733;BME280;11867;51.198;11.966;2023-01-28T00:47:28;101434.00;;;2.43;100.00
32733;BME280;11867;51.198;11.966;2023-01-28T00:48:29;101440.28;;;2.15;100.00
32733;BME280;11867;51.198;11.966;2023-01-28T00:49:33;101452.78;;;2.30;100.00
32733;BME280;11867;51.198;11.966;2023-01-28T00:50:35;101443.19;;;2.55;100.00
32733;BME280;11867;51.198;11.966;2023-01-28T00:51:37;101453.44;;;2.87;100.00
32733;BME280;11867;51.198;11.966;2023-01-28T00:52:39;101440.16;;;2.85;99.96
32733;BME280;11867;51.198;11.966;2023-01-28T00:53:42;101442.47;;;2.88;99.28
32733;BME280;11867;51.198;11.966;2023-01-28T00:54:43;101443.97;;;3.04;98.58
32733;BME280;11867;51.198;11.966;2023-01-28T00:55:46;101457.84;;;3.08;98.17
32733;BME280;11867;51.198;11.966;2023-01-28T00:56:47;101441.50;;;3.16;97.39
32733;BME280;11867;51.198;11.966;2023-01-28T00:57:50;101428.44;;;3.19;96.67
32733;BME280;11867;51.198;11.966;2023-01-28T00:58:51;101462.66;;;3.19;95.61
32733;BME280;11867;51.198;11.966;2023-01-28T00:59:54;101457.38;;;2.84;96.82
32733;BME280;11867;51.198;11.966;2023-01-28T01:00:55;101429.41;;;2.85;97.55
32733;BME280;11867;51.198;11.966;2023-01-28T01:01:58;101446.78;;;2.76;96.99
32733;BME280;11867;51.198;11.966;2023-01-28T01:03:12;101448.28;;;2.43;98.63
32733;BME280;11867;51.198;11.966;2023-01-28T01:04:15;101457.44;;;2.49;99.55
32733;BME280;11867;51.198;11.966;2023-01-28T01:05:28;101457.94;;;2.31;100.00
32733;BME280;11867;51.198;11.966;2023-01-28T01:06:31;101458.03;;;2.45;100.00
32733;BME280;11867;51.198;11.966;2023-01-28T01:07:35;101458.06;;;2.51;100.00
32733;BME280;11867;51.198;11.966;2023-01-28T01:08:42;101461.38;;;2.47;100.00
32733;BME280;11867;51.198;11.966;2023-01-28T01:09:50;101439.50;;;2.63;100.00
32733;BME280;11867;51.198;11.966;2023-01-28T01:10:51;101456.63;;;2.55;100.00
32733;BME280;11867;51.198;11.966;2023-01-28T01:11:54;101445.41;;;2.45;100.00
32733;BME280;11867;51.198;11.966;2023-01-28T01:12:55;101456.63;;;2.55;100.00
32733;BME280;11867;51.198;11.966;2023-01-28T01:13:59;101461.25;;;2.75;100.00
32733;BME280;11867;51.198;11.966;2023-01-28T01:15:01;101447.44;;;2.91;100.00
32733;BME280;11867;51.198;11.966;2023-01-28T01:16:06;101457.81;;;2.94;99.12
32733;BME280;11867;51.198;11.966;2023-01-28T01:17:08;101456.56;;;2.83;98.37
32733;BME280;11867;51.198;11.966;2023-01-28T01:18:10;101456.78;;;2.95;99.13
32733;BME280;11867;51.198;11.966;2023-01-28T01:19:12;101454.34;;;3.07;97.90
32733;BME280;11867;51.198;11.966;2023-01-28T01:20:17;101459.28;;;3.03;97.11
32733;BME280;11867;51.198;11.966;2023-01-28T01:21:22;101456.78;;;2.95;98.08
32733;BME280;11867;51.198;11.966;2023-01-28T01:22:25;101448.31;;;2.98;97.61
32733;BME280;11867;51.198;11.966;2023-01-28T01:23:27;101436.47;;;2.93;97.24
32733;BME280;11867;51.198;11.966;2023-01-28T01:24:30;101453.16;;;2.61;98.37
32733;BME280;11867;51.198;11.966;2023-01-28T01:25:34;101448.22;;;2.78;98.59
32733;BME280;11867;51.198;11.966;2023-01-28T01:26:36;101454.91;;;2.89;98.28
32733;BME280;11867;51.198;11.966;2023-01-28T01:27:38;101439.78;;;2.95;97.29
32733;BME280;11867;51.198;11.966;2023-01-28T01:28:41;101463.19;;;2.88;96.84
32733;BME280;11867;51.198;11.966;2023-01-28T01:29:43;101458.69;;;2.47;98.20
32733;BME280;11867;51.198;11.966;2023-01-28T01:30:45;101458.22;;;2.43;98.74
32733;BME280;11867;51.198;11.966;2023-01-28T01:31:47;101451.88;;;2.51;98.91
32733;BME280;11867;51.198;11.966;2023-01-28T01:32:50;101457.94;;;2.73;98.86
32733;BME280;11867;51.198;11.966;2023-01-28T01:33:51;101455.50;;;2.78;98.17
32733;BME280;11867;51.198;11.966;2023-01-28T01:34:54;101450.72;;;2.80;97.86
32733;BME280;11867;51.198;11.966;2023-01-28T01:35:56;101458.88;;;3.00;97.46
32733;BME280;11867;51.198;11.966;2023-01-28T01:37:00;101455.69;;;2.76;96.31
32733;BME280;11867;51.198;11.966;2023-01-28T01:38:01;101448.38;;;2.57;97.07
32733;BME280;11867;51.198;11.966;2023-01-28T01:39:04;101462.69;;;2.64;97.81
32733;BME280;11867;51.198;11.966;2023-01-28T01:40:07;101450.88;;;2.58;97.92
32733;BME280;11867;51.198;11.966;2023-01-28T01:41:21;101439.56;;;2.35;98.07
32733;BME280;11867;51.198;11.966;2023-01-28T01:42:23;101467.50;;;2.34;99.29
32733;BME280;11867;51.198;11.966;2023-01-28T01:43:48;101464.75;;;2.62;98.68
32733;BME280;11867;51.198;11.966;2023-01-28T01:44:56;101464.19;;;2.32;98.95
32733;BME280;11867;51.198;11.966;2023-01-28T01:46:00;101469.63;;;2.10;99.63
32733;BME280;11867;51.198;11.966;2023-01-28T01:47:01;101462.66;;;2.22;100.00
32733;BME280;11867;51.198;11.966;2023-01-28T01:48:08;101469.59;;;2.38;100.00
32733;BME280;11867;51.198;11.966;2023-01-28T01:49:17;101469.47;;;2.53;99.60
32733;BME280;11867;51.198;11.966;2023-01-28T01:50:27;101472.50;;;2.37;98.80
32733;BME280;11867;51.198;11.966;2023-01-28T01:51:33;101455.31;;;2.03;99.62
32733;BME280;11867;51.198;11.966;2023-01-28T01:52:39;101450.75;;;1.47;100.00
32733;BME280;11867;51.198;11.966;2023-01-28T01:53:44;101475.31;;;1.94;100.00
32733;BME280;11867;51.198;11.966;2023-01-28T01:54:51;101464.59;;;1.72;100.00
32733;BME280;11867;51.198;11.966;2023-01-28T01:55:57;101474.28;;;1.67;100.00
32733;BME280;11867;51.198;11.966;2023-01-28T01:57:01;101440.44;;;1.79;100.00
32733;BME280;11867;51.198;11.966;2023-01-28T01:58:08;101461.00;;;1.65;100.00
32733;BME280;11867;51.198;11.966;2023-01-28T01:59:14;101478.34;;;2.12;100.00
32733;BME280;11867;51.198;11.966;2023-01-28T02:00:19;101477.06;;;2.43;100.00
32733;BME280;11867;51.198;11.966;2023-01-28T02:01:25;101481.44;;;2.44;100.00
32733;BME280;11867;51.198;11.966;2023-01-28T02:02:28;101459.13;;;2.57;99.76
32733;BME280;11867;51.198;11.966;2023-01-28T02:03:42;101476.38;;;2.69;97.85
32733;BME280;11867;51.198;11.966;2023-01-28T02:04:49;101470.56;;;2.66;97.93
32733;BME280;11867;51.198;11.966;2023-01-28T02:05:51;101445.53;;;2.72;97.36
32733;BME280;11867;51.198;11.966;2023-01-28T02:06:54;101477.94;;;2.98;96.41
32733;BME280;11867;51.198;11.966;2023-01-28T02:07:58;101484.66;;;2.68;95.76
32733;BME280;11867;51.198;11.966;2023-01-28T02:09:25;101475.31;;;2.63;96.01
32733;BME280;11867;51.198;11.966;2023-01-28T02:10:27;101483.66;;;2.75;95.89
32733;BME280;11867;51.198;11.966;2023-01-28T02:11:31;101488.19;;;2.75;94.99
32733;BME280;11867;51.198;11.966;2023-01-28T02:12:35;101484.47;;;2.69;95.79
32733;BME280;11867;51.198;11.966;2023-01-28T02:13:41;101488.25;;;2.81;95.23
32733;BME280;11867;51.198;11.966;2023-01-28T02:14:46;101489.28;;;2.46;96.00
32733;BME280;11867;51.198;11.966;2023-01-28T02:15:51;101489.09;;;2.47;96.17
32733;BME280;11867;51.198;11.966;2023-01-28T02:16:53;101479.72;;;2.36;96.48
32733;BME280;11867;51.198;11.966;2023-01-28T02:17:56;101483.16;;;1.89;97.01
32733;BME280;11867;51.198;11.966;2023-01-28T02:18:58;101491.34;;;1.59;99.03
32733;BME280;11867;51.198;11.966;2023-01-28T02:20:02;101501.66;;;1.77;99.17
32733;BME280;11867;51.198;11.966;2023-01-28T02:23:14;101486.44;;;1.84;98.96
32733;BME280;11867;51.198;11.966;2023-01-28T02:24:39;101507.94;;;1.84;99.37
32733;BME280;11867;51.198;11.966;2023-01-28T02:26:09;101508.06;;;1.54;100.00
32733;BME280;11867;51.198;11.966;2023-01-28T02:27:23;101514.47;;;1.32;100.00
32733;BME280;11867;51.198;11.966;2023-01-28T02:28:33;101514.59;;;1.45;100.00
32733;BME280;11867;51.198;11.966;2023-01-28T02:29:43;101516.91;;;1.27;100.00
32733;BME280;11867;51.198;11.966;2023-01-28T02:30:51;101489.63;;;1.08;100.00
32733;BME280;11867;51.198;11.966;2023-01-28T02:32:01;101492.72;;;1.27;100.00
32733;BME280;11867;51.198;11.966;2023-01-28T02:33:07;101519.72;;;1.40;100.00
32733;BME280;11867;51.198;11.966;2023-01-28T02:34:17;101489.69;;;1.15;100.00
32733;BME280;11867;51.198;11.966;2023-01-28T02:35:25;101522.34;;;1.33;100.00
32733;BME280;11867;51.198;11.966;2023-01-28T02:36:35;101518.75;;;1.69;100.00
32733;BME280;11867;51.198;11.966;2023-01-28T02:37:45;101509.53;;;1.78;100.00
32733;BME280;11867;51.198;11.966;2023-01-28T02:38:51;101504.44;;;1.62;99.80
32733;BME280;11867;51.198;11.966;2023-01-28T02:39:57;101512.09;;;1.44;99.89
32733;BME280;11867;51.198;11.966;2023-01-28T02:41:04;101489.56;;;1.45;100.00
32733;BME280;11867;51.198;11.966;2023-01-28T02:42:11;101516.97;;;1.76;100.00
32733;BME280;11867;51.198;11.966;2023-01-28T02:43:16;101511.94;;;1.95;99.22
32733;BME280;11867;51.198;11.966;2023-01-28T02:44:19;101509.41;;;1.87;99.28
32733;BME280;11867;51.198;11.966;2023-01-28T02:45:24;101492.81;;;1.83;98.60
32733;BME280;11867;51.198;11.966;2023-01-28T02:46:46;101488.81;;;1.51;98.35
32733;BME280;11867;51.198;11.966;2023-01-28T02:48:06;101517.91;;;1.26;99.65
32733;BME280;11867;51.198;11.966;2023-01-28T02:49:09;101514.16;;;1.41;100.00
32733;BME280;11867;51.198;11.966;2023-01-28T02:50:15;101512.81;;;1.52;99.91
32733;BME280;11867;51.198;11.966;2023-01-28T02:51:23;101515.09;;;1.12;100.00
32733;BME280;11867;51.198;11.966;2023-01-28T02:52:36;101515.09;;;1.34;100.00
32733;BME280;11867;51.198;11.966;2023-01-28T02:54:03;101520.25;;;1.72;100.00
32733;BME280;11867;51.198;11.966;2023-01-28T02:55:10;101518.38;;;1.72;99.30
32733;BME280;11867;51.198;11.966;2023-01-28T02:56:19;101516.72;;;1.50;99.99
32733;BME280;11867;51.198;11.966;2023-01-28T02:57:35;101510.19;;;1.59;99.77
32733;BME280;11867;51.198;11.966;2023-01-28T02:58:41;101515.63;;;1.44;99.31
32733;BME280;11867;51.198;11.966;2023-01-28T02:59:55;101496.94;;;1.36;100.00
32733;BME280;11867;51.198;11.966;2023-01-28T03:01:09;101519.75;;;1.25;99.89
32733;BME280;11867;51.198;11.966;2023-01-28T03:02:19;101521.03;;;1.08;100.00
32733;BME280;11867;51.198;11.966;2023-01-28T03:03:26;101524.47;;;1.02;100.00
32733;BME280;11867;51.198;11.966;2023-01-28T03:04:34;101515.97;;;1.19;100.00
32733;BME280;11867;51.198;11.966;2023-01-28T03:05:40;101521.94;;;1.36;100.00
32733;BME280;11867;51.198;11.966;2023-01-28T03:07:02;101520.53;;;1.19;100.00
32733;BME280;11867;51.198;11.966;2023-01-28T03:08:06;101513.06;;;1.36;100.00
32733;BME280;11867;51.198;11.966;2023-01-28T03:09:25;101521.81;;;1.45;99.94
32733;BME280;11867;51.198;11.966;2023-01-28T03:10:28;101522.72;;;1.30;100.00
32733;BME280;11867;51.198;11.966;2023-01-28T03:11:36;101528.34;;;1.35;100.00
32733;BME280;11867;51.198;11.966;2023-01-28T03:12:59;101518.63;;;1.56;100.00
32733;BME280;11867;51.198;11.966;2023-01-28T03:14:20;101501.47;;;1.57;99.09
32733;BME280;11867;51.198;11.966;2023-01-28T03:15:45;101526.25;;;1.31;99.50
32733;BME280;11867;51.198;11.966;2023-01-28T03:17:11;101520.16;;;1.22;100.00
32733;BME280;11867;51.198;11.966;2023-01-28T03:18:38;101523.44;;;1.39;100.00
32733;BME280;11867;51.198;11.966;2023-01-28T03:20:00;101518.25;;;1.59;100.00
32733;BME280;11867;51.198;11.966;2023-01-28T03:21:24;101524.50;;;1.88;98.36
32733;BME280;11867;51.198;11.966;2023-01-28T03:22:49;101525.63;;;2.00;96.93
32733;BME280;11867;51.198;11.966;2023-01-28T03:24:13;101527.78;;;1.61;97.03
32733;BME280;11867;51.198;11.966;2023-01-28T03:25:37;101523.94;;;1.92;96.94
32733;BME280;11867;51.198;11.966;2023-01-28T03:27:03;101526.19;;;1.89;96.74
32733;BME280;11867;51.198;11.966;2023-01-28T03:28:26;101522.44;;;2.11;96.23
32733;BME280;11867;51.198;11.966;2023-01-28T03:29:49;101525.78;;;2.20;96.00
32733;BME280;11867;51.198;11.966;2023-01-28T03:31:14;101520.72;;;2.32;95.09
32733;BME280;11867;51.198;11.966;2023-01-28T03:32:35;101532.91;;;2.62;94.32
32733;BME280;11867;51.198;11.966;2023-01-28T03:33:57;101537.75;;;2.80;93.33
32733;BME280;11867;51.198;11.966;2023-01-28T03:35:21;101537.66;;;2.60;92.29
32733;BME280;11867;51.198;11.966;2023-01-28T03:36:42;101536.66;;;2.75;92.42
32733;BME280;11867;51.198;11.966;2023-01-28T03:37:50;101527.97;;;2.73;92.11
32733;BME280;11867;51.198;11.966;2023-01-28T03:38:53;101543.56;;;2.84;92.01
32733;BME280;11867;51.198;11.966;2023-01-28T03:39:55;101511.00;;;2.79;91.50
32733;BME280;11867;51.198;11.966;2023-01-28T03:41:00;101542.19;;;2.60;91.63
32733;BME280;11867;51.198;11.966;2023-01-28T03:42:04;101538.47;;;2.61;91.95
32733;BME280;11867;51.198;11.966;2023-01-28T03:43:07;101540.41;;;2.74;91.97
32733;BME280;11867;51.198;11.966;2023-01-28T03:44:08;101541.06;;;2.82;91.93
32733;BME280;11867;51.198;11.966;2023-01-28T03:45:29;101544.69;;;3.03;91.21
32733;BME280;11867;51.198;11.966;2023-01-28T03:46:32;101528.69;;;2.95;89.67
32733;BME280;11867;51.198;11.966;2023-01-28T03:47:36;101542.81;;;2.62;90.19
32733;BME280;11867;51.198;11.966;2023-01-28T03:48:40;101540.22;;;2.40;91.62
32733;BME280;11867;51.198;11.966;2023-01-28T03:49:43;101517.56;;;2.00;91.92
32733;BME280;11867;51.198;11.966;2023-01-28T03:50:49;101545.06;;;2.24;93.23
32733;BME280;11867;51.198;11.966;2023-01-28T03:51:51;101553.81;;;2.04;93.73
32733;BME280;11867;51.198;11.966;2023-01-28T03:52:53;101548.06;;;1.86;93.88
32733;BME280;11867;51.198;11.966;2023-01-28T03:53:55;101553.00;;;1.82;94.84
32733;BME280;11867;51.198;11.966;2023-01-28T03:55:05;101556.91;;;2.01;94.65
32733;BME280;11867;51.198;11.966;2023-01-28T03:56:14;101553.44;;;2.07;94.68
32733;BME280;11867;51.198;11.966;2023-01-28T03:57:21;101550.09;;;2.33;94.28
32733;BME280;11867;51.198;11.966;2023-01-28T03:58:24;101545.44;;;2.20;93.51
32733;BME280;11867;51.198;11.966;2023-01-28T03:59:27;101522.13;;;1.99;94.22
32733;BME280;11867;51.198;11.966;2023-01-28T04:00:30;101549.41;;;2.25;93.97
32733;BME280;11867;51.198;11.966;2023-01-28T04:01:34;101546.75;;;2.31;93.33
32733;BME280;11867;51.198;11.966;2023-01-28T04:02:36;101539.81;;;2.43;92.96
32733;BME280;11867;51.198;11.966;2023-01-28T04:03:40;101525.78;;;2.20;92.99
32733;BME280;11867;51.198;11.966;2023-01-28T04:04:43;101546.75;;;2.31;93.26
32733;BME280;11867;51.198;11.966;2023-01-28T04:05:46;101548.53;;;2.46;92.70
32733;BME280;11867;51.198;11.966;2023-01-28T04:06:58;101538.66;;;2.59;92.19
32733;BME280;11867;51.198;11.966;2023-01-28T04:08:00;101548.06;;;2.70;91.29
32733;BME280;11867;51.198;11.966;2023-01-28T04:09:03;101536.25;;;2.71;91.20
32733;BME280;11867;51.198;11.966;2023-01-28T04:10:07;101526.00;;;2.53;90.44
32733;BME280;11867;51.198;11.966;2023-01-28T04:11:10;101526.88;;;2.26;91.48
32733;BME280;11867;51.198;11.966;2023-01-28T04:12:16;101550.22;;;2.53;92.17
32733;BME280;11867;51.198;11.966;2023-01-28T04:13:22;101550.00;;;2.48;91.38
32733;BME280;11867;51.198;11.966;2023-01-28T04:14:23;101544.81;;;2.47;90.99
32733;BME280;11867;51.198;11.966;2023-01-28T04:15:26;101538.91;;;2.30;91.62
32733;BME280;11867;51.198;11.966;2023-01-28T04:16:27;101542.09;;;2.40;91.53
32733;BME280;11867;51.198;11.966;2023-01-28T04:17:31;101544.94;;;2.32;91.46
32733;BME280;11867;51.198;11.966;2023-01-28T04:18:33;101536.16;;;1.95;91.71
32733;BME280;11867;51.198;11.966;2023-01-28T04:19:36;101545.28;;;2.00;93.24
32733;BME280;11867;51.198;11.966;2023-01-28T04:20:38;101551.38;;;2.09;93.41
32733;BME280;11867;51.198;11.966;2023-01-28T04:21:40;101561.16;;;2.17;93.27
32733;BME280;11867;51.198;11.966;2023-01-28T04:22:43;101558.28;;;2.18;93.42
32733;BME280;11867;51.198;11.966;2023-01-28T04:23:44;101551.31;;;2.31;93.17
32733;BME280;11867;51.198;11.966;2023-01-28T04:24:47;101534.72;;;2.27;92.61
32733;BME280;11867;51.198;11.966;2023-01-28T04:25:48;101558.00;;;2.41;92.23
32733;BME280;11867;51.198;11.966;2023-01-28T04:26:51;101551.84;;;2.48;91.60
32733;BME280;11867;51.198;11.966;2023-01-28T04:27:55;101550.50;;;2.58;91.16
32733;BME280;11867;51.198;11.966;2023-01-28T04:28:58;101556.81;;;2.44;91.32
32733;BME280;11867;51.198;11.966;2023-01-28T04:29:59;101552.94;;;2.53;91.46
32733;BME280;11867;51.198;11.966;2023-01-28T04:31:02;101552.00;;;2.39;90.78
32733;BME280;11867;51.198;11.966;2023-01-28T04:32:04;101561.59;;;1.92;92.05
32733;BME280;11867;51.198;11.966;2023-01-28T04:33:08;101562.16;;;1.88;93.27
32733;BME280;11867;51.198;11.966;2023-01-28T04:34:09;101560.88;;;1.84;94.19
32733;BME280;11867;51.198;11.966;2023-01-28T04:35:12;101563.13;;;1.80;93.99
32733;BME280;11867;51.198;11.966;2023-01-28T04:36:14;101563.03;;;1.30;95.72
32733;BME280;11867;51.198;11.966;2023-01-28T04:37:16;101544.41;;;1.50;96.50
32733;BME280;11867;51.198;11.966;2023-01-28T04:38:19;101561.47;;;1.57;95.62
32733;BME280;11867;51.198;11.966;2023-01-28T04:39:20;101560.41;;;1.37;96.37
32733;BME280;11867;51.198;11.966;2023-01-28T04:40:23;101558.78;;;1.42;96.64
32733;BME280;11867;51.198;11.966;2023-01-28T04:41:25;101561.09;;;1.24;97.57
32733;BME280;11867;51.198;11.966;2023-01-28T04:42:27;101556.13;;;1.42;97.10
32733;BME280;11867;51.198;11.966;2023-01-28T04:43:29;101564.38;;;1.41;96.83
32733;BME280;11867;51.198;11.966;2023-01-28T04:44:32;101562.00;;;1.53;96.18
32733;BME280;11867;51.198;11.966;2023-01-28T04:45:34;101569.59;;;1.64;95.89
32733;BME280;11867;51.198;11.966;2023-01-28T04:46:36;101557.56;;;1.60;95.34
32733;BME280;11867;51.198;11.966;2023-01-28T04:47:38;101567.63;;;1.36;95.96
32733;BME280;11867;51.198;11.966;2023-01-28T04:48:41;101560.53;;;1.50;96.22
32733;BME280;11867;51.198;11.966;2023-01-28T04:49:44;101562.72;;;1.83;95.82
32733;BME280;11867;51.198;11.966;2023-01-28T04:50:45;101553.69;;;1.69;94.97
32733;BME280;11867;51.198;11.966;2023-01-28T04:51:48;101561.47;;;1.57;95.33
32733;BME280;11867;51.198;11.966;2023-01-28T04:52:49;101561.88;;;1.61;95.65
32733;BME280;11867;51.198;11.966;2023-01-28T04:53:52;101554.88;;;1.60;95.36
32733;BME280;11867;51.198;11.966;2023-01-28T04:54:53;101559.81;;;1.78;95.36
32733;BME280;11867;51.198;11.966;2023-01-28T04:55:56;101547.13;;;1.72;95.24
32733;BME280;11867;51.198;11.966;2023-01-28T04:56:58;101570.94;;;1.75;94.73
32733;BME280;11867;51.198;11.966;2023-01-28T04:58:01;101544.22;;;1.73;95.07
32733;BME280;11867;51.198;11.966;2023-01-28T04:59:02;101568.84;;;1.98;94.42
32733;BME280;11867;51.198;11.966;2023-01-28T05:00:06;101566.91;;;1.64;94.09
32733;BME280;11867;51.198;11.966;2023-01-28T05:01:08;101572.72;;;1.68;95.04
32733;BME280;11867;51.198;11.966;2023-01-28T05:02:11;101572.63;;;1.61;95.29
32733;BME280;11867;51.198;11.966;2023-01-28T05:03:12;101565.88;;;1.87;95.14
32733;BME280;11867;51.198;11.966;2023-01-28T05:04:17;101582.25;;;1.92;94.84
32733;BME280;11867;51.198;11.966;2023-01-28T05:05:18;101575.81;;;2.14;94.33
32733;BME280;11867;51.198;11.966;2023-01-28T05:06:21;101569.19;;;2.38;92.42
32733;BME280;11867;51.198;11.966;2023-01-28T05:07:22;101561.72;;;2.34;91.54
32733;BME280;11867;51.198;11.966;2023-01-28T05:08:25;101575.88;;;1.93;91.97
32733;BME280;11867;51.198;11.966;2023-01-28T05:09:27;101543.84;;;1.76;93.13
32733;BME280;11867;51.198;11.966;2023-01-28T05:10:29;101574.06;;;1.78;93.64
32733;BME280;11867;51.198;11.966;2023-01-28T05:11:30;101581.81;;;2.10;93.49
32733;BME280;11867;51.198;11.966;2023-01-28T05:12:33;101579.56;;;2.13;92.65
32733;BME280;11867;51.198;11.966;2023-01-28T05:13:34;101568.53;;;2.08;92.41
32733;BME280;11867;51.198;11.966;2023-01-28T05:14:37;101577.38;;;2.24;91.51
32733;BME280;11867;51.198;11.966;2023-01-28T05:15:39;101581.88;;;1.95;92.28
32733;BME280;11867;51.198;11.966;2023-01-28T05:16:41;101585.81;;;2.20;92.17
32733;BME280;11867;51.198;11.966;2023-01-28T05:17:43;101581.25;;;1.93;91.94
32733;BME280;11867;51.198;11.966;2023-01-28T05:18:46;101581.75;;;1.81;93.25
32733;BME280;11867;51.198;11.966;2023-01-28T05:19:49;101561.41;;;1.72;93.30
32733;BME280;11867;51.198;11.966;2023-01-28T05:20:52;101589.50;;;1.91;93.73
32733;BME280;11867;51.198;11.966;2023-01-28T05:21:53;101587.84;;;1.90;93.30
32733;BME280;11867;51.198;11.966;2023-01-28T05:22:56;101595.38;;;2.01;93.41
32733;BME280;11867;51.198;11.966;2023-01-28T05:23:57;101595.31;;;2.16;92.93
32733;BME280;11867;51.198;11.966;2023-01-28T05:25:00;101589.41;;;2.06;92.36
32733;BME280;11867;51.198;11.966;2023-01-28T05:26:04;101565.03;;;2.08;92.00
32733;BME280;11867;51.198;11.966;2023-01-28T05:27:06;101590.69;;;2.10;91.87
32733;BME280;11867;51.198;11.966;2023-01-28T05:28:08;101601.59;;;2.02;92.07
32733;BME280;11867;51.198;11.966;2023-01-28T05:29:10;101602.59;;;2.22;92.16
32733;BME280;11867;51.198;11.966;2023-01-28T05:30:12;101598.34;;;2.35;92.06
32733;BME280;11867;51.198;11.966;2023-01-28T05:31:16;101601.31;;;2.18;91.45
32733;BME280;11867;51.198;11.966;2023-01-28T05:32:18;101579.94;;;2.10;91.57
32733;BME280;11867;51.198;11.966;2023-01-28T05:33:21;101593.91;;;1.99;92.02
32733;BME280;11867;51.198;11.966;2023-01-28T05:34:23;101560.09;;;1.90;92.03
32733;BME280;11867;51.198;11.966;2023-01-28T05:35:27;101597.38;;;1.93;92.75
32733;BME280;11867;51.198;11.966;2023-01-28T05:36:30;101566.50;;;1.89;92.82
32733;BME280;11867;51.198;11.966;2023-01-28T05:37:32;101607.66;;;2.32;92.09
32733;BME280;11867;51.198;11.966;2023-01-28T05:38:34;101585.94;;;2.12;92.05
32733;BME280;11867;51.198;11.966;2023-01-28T05:39:36;101606.78;;;2.04;91.95
32733;BME280;11867;51.198;11.966;2023-01-28T05:40:41;101601.59;;;1.80;92.86
32733;BME280;11867;51.198;11.966;2023-01-28T05:41:42;101600.97;;;1.78;93.93
32733;BME280;11867;51.198;11.966;2023-01-28T05:42:46;101581.28;;;1.56;94.18
32733;BME280;11867;51.198;11.966;2023-01-28T05:43:47;101605.06;;;1.96;94.16